Time;durP1;ratioP1;P1;durP2;ratioP2;P2;SDS_P1;SDS_P2;PMS_P1;PMS_P2;Temp;Humidity;BMP_temperature;BMP_pressure;BME280_temperature;BME280_humidity;BME280_pressure;Samples;Min_cycle;Max_cycle;Signal;HPM_P1;HPM_P2
2022/05/25 00:02:23;;;;;;;0.73;0.50;;;21.70;51.30;;;;;;5111085;27;20513;-60
2022/05/25 00:04:49;;;;;;;1.33;0.60;;;21.70;51.30;;;;;;5094730;27;20051;-62
2022/05/25 00:07:16;;;;;;;0.63;0.40;;;21.60;51.30;;;;;;5114931;27;20039;-63
2022/05/25 00:09:42;;;;;;;0.47;0.47;;;21.60;51.30;;;;;;5111702;27;21072;-61
2022/05/25 00:12:09;;;;;;;1.42;0.68;;;21.60;51.30;;;;;;5113933;27;20032;-61
2022/05/25 00:14:35;;;;;;;0.60;0.50;;;21.60;51.30;;;;;;5117371;27;20380;-63
2022/05/25 00:17:02;;;;;;;0.45;0.45;;;21.60;51.30;;;;;;5093758;27;20042;-60
2022/05/25 00:22:11;;;;;;;0.60;0.57;;;21.60;51.20;;;;;;5113872;27;20112;-61
2022/05/25 00:24:37;;;;;;;1.08;0.70;;;21.60;51.20;;;;;;5090049;27;20043;-61
2022/05/25 00:27:03;;;;;;;0.60;0.50;;;21.60;51.30;;;;;;5113654;27;20336;-61
2022/05/25 00:29:28;;;;;;;0.60;0.60;;;21.60;51.20;;;;;;5110110;27;20043;-61
2022/05/25 00:31:54;;;;;;;0.95;0.45;;;21.60;51.20;;;;;;5091398;27;20630;-61
2022/05/25 00:34:19;;;;;;;0.50;0.50;;;21.60;51.20;;;;;;5094447;27;20457;-62
2022/05/25 00:36:45;;;;;;;0.50;0.50;;;21.60;51.20;;;;;;5114389;27;20472;-62
2022/05/25 00:39:11;;;;;;;0.75;0.60;;;21.60;52.00;;;;;;5113886;27;20456;-61
2022/05/25 00:41:37;;;;;;;0.50;0.50;;;21.60;51.20;;;;;;5114114;27;20437;-63
2022/05/25 00:44:04;;;;;;;0.52;0.50;;;21.60;51.20;;;;;;5113835;27;20863;-61
2022/05/25 00:46:32;;;;;;;1.20;0.50;;;21.60;51.20;;;;;;5112924;27;20039;-63
2022/05/25 00:49:10;;;;;;;0.43;0.40;;;21.60;51.20;;;;;;5101819;27;20035;-60
2022/05/25 00:51:40;;;;;;;1.38;0.70;;;21.60;51.20;;;;;;5111192;27;20556;-61
2022/05/25 00:54:13;;;;;;;0.68;0.50;;;21.60;51.20;;;;;;5112047;27;20030;-61
2022/05/25 00:56:45;;;;;;;1.27;0.40;;;21.60;51.20;;;;;;5111879;27;20043;-64
2022/05/25 00:59:15;;;;;;;0.60;0.52;;;21.60;51.30;;;;;;5113276;27;20053;-61
2022/05/25 01:01:43;;;;;;;0.40;0.40;;;21.60;51.20;;;;;;5110158;27;20432;-61
2022/05/25 01:04:09;;;;;;;0.50;0.50;;;21.60;51.20;;;;;;5109399;27;20505;-60
2022/05/25 01:07:13;;;;;;;1.38;0.50;;;21.50;51.10;;;;;;5115624;27;20048;-62
2022/05/25 01:10:07;;;;;;;0.50;0.50;;;21.60;51.20;;;;;;5114040;27;20051;-64
2022/05/25 01:12:36;;;;;;;0.70;0.63;;;21.60;51.10;;;;;;5112806;27;20035;-61
2022/05/25 01:15:21;;;;;;;0.50;0.50;;;21.50;51.20;;;;;;5115112;27;20055;-59
2022/05/25 01:17:47;;;;;;;1.80;0.77;;;21.50;51.20;;;;;;5111739;27;20445;-60
2022/05/25 01:20:30;;;;;;;0.80;0.70;;;21.50;51.10;;;;;;5096558;27;20032;-61
2022/05/25 01:23:37;;;;;;;0.60;0.50;;;21.50;51.20;;;;;;5114312;27;20368;-62
2022/05/25 01:26:39;;;;;;;0.68;0.68;;;21.50;51.10;;;;;;5110801;27;20047;-62
2022/05/25 01:29:33;;;;;;;0.70;0.70;;;21.50;51.10;;;;;;5111000;27;20031;-60
2022/05/25 01:32:14;;;;;;;0.70;0.70;;;21.50;51.20;;;;;;5056639;27;20083;-60
2022/05/25 01:34:54;;;;;;;0.55;0.50;;;21.50;51.20;;;;;;5112926;27;20058;-61
2022/05/25 01:37:38;;;;;;;0.70;0.52;;;21.50;51.10;;;;;;5113031;27;20147;-61
2022/05/25 01:40:11;;;;;;;1.10;0.70;;;21.50;51.20;;;;;;5112307;27;20081;-61
2022/05/25 01:43:00;;;;;;;0.75;0.70;;;21.50;51.20;;;;;;5095389;27;20073;-65
2022/05/25 01:45:31;;;;;;;0.70;0.70;;;21.50;51.10;;;;;;5113686;27;20043;-61
2022/05/25 01:48:04;;;;;;;0.50;0.50;;;21.50;51.20;;;;;;5110450;27;20391;-60
2022/05/25 01:50:39;;;;;;;0.70;0.63;;;21.50;51.10;;;;;;5099451;27;20048;-63
2022/05/25 01:53:07;;;;;;;0.70;0.57;;;21.50;51.10;;;;;;5101775;27;20051;-63
2022/05/25 01:55:37;;;;;;;0.68;0.60;;;21.50;51.10;;;;;;5109408;27;20032;-60
2022/05/25 01:58:08;;;;;;;1.23;0.80;;;21.50;51.10;;;;;;5099312;27;20455;-60
2022/05/25 02:00:33;;;;;;;;;;;21.50;51.10;;;;;;5106104;27;20143;-62
2022/05/25 02:06:08;;;;;;;1.17;0.80;;;21.40;51.20;;;;;;5109335;27;20051;-63
2022/05/25 02:08:50;;;;;;;0.90;0.60;;;21.40;51.10;;;;;;5106051;27;20144;-60
2022/05/25 02:11:31;;;;;;;0.82;0.80;;;21.40;51.10;;;;;;5098253;27;20036;-63
2022/05/25 02:14:12;;;;;;;0.60;0.60;;;21.40;51.10;;;;;;5110649;27;20032;-62
2022/05/25 02:16:47;;;;;;;2.28;0.90;;;21.40;51.10;;;;;;5112433;27;20051;-61
2022/05/25 02:19:30;;;;;;;0.70;0.70;;;21.40;51.10;;;;;;5112726;27;20522;-61
2022/05/25 02:22:16;;;;;;;0.70;0.70;;;21.50;51.10;;;;;;5112121;27;20047;-64
2022/05/25 02:24:58;;;;;;;0.70;0.70;;;21.40;51.00;;;;;;5109834;27;20131;-61
2022/05/25 02:27:31;;;;;;;0.70;0.70;;;21.40;51.00;;;;;;5111895;27;20119;-60
2022/05/25 02:30:01;;;;;;;1.13;0.80;;;21.40;51.00;;;;;;5110103;27;20036;-61
2022/05/25 02:32:28;;;;;;;1.17;0.80;;;21.40;51.80;;;;;;5109294;27;20058;-61
2022/05/25 02:34:57;;;;;;;0.70;0.70;;;21.40;51.00;;;;;;5111617;27;20506;-62
2022/05/25 02:37:25;;;;;;;1.10;0.80;;;21.40;50.90;;;;;;5110905;27;20031;-62
2022/05/25 02:39:53;;;;;;;1.42;0.82;;;21.40;50.90;;;;;;5111217;27;20046;-63
2022/05/25 02:42:18;;;;;;;0.60;0.60;;;21.40;51.00;;;;;;5110491;27;20094;-61
2022/05/25 02:44:44;;;;;;;0.80;0.77;;;21.40;51.00;;;;;;5097585;27;20096;-61
2022/05/25 02:47:11;;;;;;;1.00;0.90;;;21.40;51.00;;;;;;5111187;27;20434;-63
2022/05/25 02:49:37;;;;;;;0.75;0.75;;;21.40;50.90;;;;;;5110719;27;20042;-61
2022/05/25 02:52:05;;;;;;;0.77;0.77;;;21.40;50.90;;;;;;5111759;27;20371;-60
2022/05/25 02:54:30;;;;;;;1.10;1.00;;;21.40;50.90;;;;;;5113873;27;20421;-63
2022/05/25 02:56:56;;;;;;;1.13;0.93;;;21.40;50.90;;;;;;5109444;27;20064;-63
2022/05/25 02:59:21;;;;;;;0.90;0.73;;;21.40;50.90;;;;;;5108154;27;20471;-65
2022/05/25 03:01:47;;;;;;;1.05;0.80;;;21.40;50.90;;;;;;5110995;27;20047;-62
2022/05/25 03:04:13;;;;;;;1.20;0.90;;;21.40;50.90;;;;;;5108440;27;20038;-61
2022/05/25 03:06:38;;;;;;;1.02;1.00;;;21.40;50.90;;;;;;5111178;27;20042;-63
2022/05/25 03:09:04;;;;;;;1.15;1.00;;;21.40;50.90;;;;;;5111618;27;20032;-61
2022/05/25 03:11:30;;;;;;;0.93;0.90;;;21.40;50.90;;;;;;5109420;27;20442;-60
2022/05/25 03:13:55;;;;;;;0.82;0.82;;;21.40;50.80;;;;;;5109161;27;20040;-60
2022/05/25 03:16:22;;;;;;;0.80;0.80;;;21.40;50.90;;;;;;5110759;27;20035;-64
2022/05/25 03:18:50;;;;;;;1.42;0.90;;;21.40;50.90;;;;;;5109211;27;20043;-61
2022/05/25 03:21:18;;;;;;;1.10;1.00;;;21.40;50.80;;;;;;5110517;27;20143;-60
2022/05/25 03:23:44;;;;;;;0.80;0.80;;;21.40;50.80;;;;;;5107562;27;20042;-61
2022/05/25 03:26:09;;;;;;;0.90;0.90;;;21.40;50.80;;;;;;5107749;27;20103;-62
2022/05/25 03:28:36;;;;;;;1.10;1.00;;;21.40;50.80;;;;;;5095940;28;20039;-60
2022/05/25 03:31:02;;;;;;;1.50;1.20;;;21.40;50.70;;;;;;5086233;28;20058;-61
2022/05/25 03:33:28;;;;;;;1.15;0.93;;;21.40;50.80;;;;;;5110517;28;20040;-60
2022/05/25 03:35:53;;;;;;;0.90;0.90;;;21.40;50.80;;;;;;5110645;28;20039;-61
2022/05/25 03:38:19;;;;;;;1.48;1.15;;;21.40;50.80;;;;;;5113537;28;20119;-60
2022/05/25 03:40:45;;;;;;;0.90;0.90;;;21.40;50.70;;;;;;5109948;28;20038;-63
2022/05/25 03:43:14;;;;;;;1.20;1.10;;;21.40;50.70;;;;;;5112374;28;20043;-61
2022/05/25 03:45:40;;;;;;;1.00;0.80;;;21.40;50.70;;;;;;5110169;28;20166;-61
2022/05/25 03:48:07;;;;;;;1.55;1.00;;;21.30;50.60;;;;;;5110221;28;20027;-62
2022/05/25 03:50:40;;;;;;;1.55;0.93;;;21.30;50.60;;;;;;5112055;28;20039;-62
2022/05/25 03:53:08;;;;;;;1.05;1.00;;;21.30;50.60;;;;;;5100311;28;20615;-62
2022/05/25 03:55:34;;;;;;;1.25;1.15;;;21.30;50.70;;;;;;5106399;28;20092;-62
2022/05/25 03:58:01;;;;;;;1.10;1.00;;;21.40;50.70;;;;;;5110723;28;20471;-62
2022/05/25 04:00:27;;;;;;;1.02;0.93;;;21.30;50.70;;;;;;5106515;27;20079;-64
2022/05/25 04:02:52;;;;;;;0.98;0.98;;;21.40;50.70;;;;;;5104528;28;20510;-64
2022/05/25 04:05:18;;;;;;;1.85;1.20;;;21.30;50.60;;;;;;5107857;28;20066;-61
2022/05/25 04:07:47;;;;;;;2.35;1.10;;;21.40;50.70;;;;;;5111776;27;20093;-61
2022/05/25 04:10:19;;;;;;;2.08;0.90;;;21.30;50.70;;;;;;5115007;28;20617;-64
2022/05/25 04:12:45;;;;;;;1.05;0.90;;;21.30;50.70;;;;;;5108294;28;20044;-62
2022/05/25 04:15:15;;;;;;;1.10;1.00;;;21.30;51.50;;;;;;5107386;28;20043;-61
2022/05/25 04:17:40;;;;;;;1.77;1.35;;;21.30;50.60;;;;;;5106730;28;20055;-63
2022/05/25 04:20:08;;;;;;;1.95;1.25;;;21.30;50.70;;;;;;5111083;28;20035;-61
2022/05/25 04:22:35;;;;;;;1.23;1.10;;;21.30;50.70;;;;;;5111666;28;20484;-61
2022/05/25 04:25:07;;;;;;;1.35;1.25;;;21.30;50.60;;;;;;5113266;27;20086;-62
2022/05/25 04:27:34;;;;;;;1.15;1.00;;;21.30;50.60;;;;;;5110502;28;20143;-61
2022/05/25 04:29:59;;;;;;;1.38;1.27;;;21.30;50.70;;;;;;5108055;28;20036;-62
2022/05/25 04:32:25;;;;;;;1.05;0.95;;;21.30;50.60;;;;;;5109058;28;20066;-62
2022/05/25 04:34:50;;;;;;;0.98;0.95;;;21.30;50.60;;;;;;5112352;28;20036;-65
2022/05/25 04:40:00;;;;;;;2.22;1.30;;;21.30;50.50;;;;;;5111272;27;20134;-62
2022/05/25 04:42:29;;;;;;;1.20;1.20;;;21.30;50.50;;;;;;5113616;27;20090;-66
2022/05/25 04:45:00;;;;;;;8.70;1.48;;;21.30;50.60;;;;;;5112924;27;20121;-61
2022/05/25 04:47:32;;;;;;;1.58;1.48;;;21.30;50.50;;;;;;5099256;27;20481;-61
2022/05/25 04:49:58;;;;;;;1.30;1.20;;;21.30;50.40;;;;;;5115578;27;20043;-61
2022/05/25 04:52:24;;;;;;;2.53;1.13;;;21.30;50.20;;;;;;5115093;27;20745;-61
2022/05/25 04:54:50;;;;;;;1.20;1.10;;;21.30;50.00;;;;;;5116719;27;20475;-61
2022/05/25 04:57:27;;;;;;;1.98;1.10;;;21.30;49.70;;;;;;5110945;27;20051;-61
2022/05/25 05:00:06;;;;;;;1.88;1.20;;;21.30;49.70;;;;;;5101537;27;20612;-62
2022/05/25 05:02:32;;;;;;;1.20;1.10;;;21.30;49.70;;;;;;5114436;27;20047;-63
2022/05/25 05:04:57;;;;;;;2.30;1.23;;;21.30;49.70;;;;;;5115477;27;20046;-62
2022/05/25 05:07:34;;;;;;;1.30;1.08;;;21.20;49.70;;;;;;5114104;27;20047;-62
2022/05/25 05:10:04;;;;;;;4.22;1.20;;;21.30;49.80;;;;;;5117720;27;20032;-61
2022/05/25 05:12:30;;;;;;;1.17;1.07;;;21.30;49.70;;;;;;5115182;27;20047;-62
2022/05/25 05:14:57;;;;;;;1.40;1.05;;;21.20;49.70;;;;;;5113173;27;20035;-60
2022/05/25 05:17:24;;;;;;;1.60;1.20;;;21.30;49.70;;;;;;5109601;27;20031;-61
2022/05/25 05:19:49;;;;;;;1.23;1.08;;;21.30;49.70;;;;;;5102957;27;20054;-61
2022/05/25 05:22:15;;;;;;;1.95;1.10;;;21.30;49.70;;;;;;5114869;27;20031;-61
2022/05/25 05:24:44;;;;;;;1.48;1.20;;;21.30;49.80;;;;;;5093499;27;20047;-64
2022/05/25 05:27:10;;;;;;;1.75;0.98;;;21.20;50.40;;;;;;5099494;27;20087;-61
2022/05/25 05:29:35;;;;;;;2.03;1.05;;;21.30;49.80;;;;;;5111603;27;20450;-66
2022/05/25 05:32:01;;;;;;;1.17;1.00;;;21.30;49.80;;;;;;5113989;27;20103;-66
2022/05/25 05:34:28;;;;;;;1.40;1.30;;;21.30;49.80;;;;;;5111192;27;20050;-63
2022/05/25 05:37:08;;;;;;;1.42;1.00;;;21.30;49.80;;;;;;5097521;27;20035;-64
2022/05/25 05:39:37;;;;;;;2.03;1.15;;;21.30;49.80;;;;;;5099862;27;20279;-65
2022/05/25 05:42:10;;;;;;;1.38;1.27;;;21.30;49.80;;;;;;5101481;27;20621;-65
2022/05/25 05:44:40;;;;;;;1.52;1.42;;;21.30;49.80;;;;;;5113335;27;20539;-66
2022/05/25 05:47:14;;;;;;;1.50;1.40;;;21.30;49.80;;;;;;5113892;27;20043;-65
2022/05/25 05:49:40;;;;;;;1.40;1.10;;;21.30;49.80;;;;;;5112095;27;20101;-66
2022/05/25 05:52:06;;;;;;;1.20;1.10;;;21.20;50.50;;;;;;5112274;27;20355;-66
2022/05/25 05:54:32;;;;;;;1.33;1.10;;;21.30;49.90;;;;;;5111390;27;20046;-65
2022/05/25 05:56:58;;;;;;;2.13;1.25;;;21.20;49.80;;;;;;5115461;27;20177;-65
2022/05/25 05:59:24;;;;;;;1.40;1.25;;;21.30;49.90;;;;;;5096710;27;20131;-64
2022/05/25 06:01:49;;;;;;;2.10;1.10;;;21.30;49.90;;;;;;5115443;27;20039;-66
2022/05/25 06:04:16;;;;;;;1.25;1.15;;;21.30;49.90;;;;;;5110268;27;21020;-65
2022/05/25 06:06:42;;;;;;;1.25;1.10;;;21.30;49.90;;;;;;5098676;27;20693;-66
2022/05/25 06:09:08;;;;;;;1.65;1.30;;;21.30;49.90;;;;;;5113089;27;20122;-66
2022/05/25 06:11:38;;;;;;;2.10;1.10;;;21.30;49.90;;;;;;5113232;27;20071;-66
2022/05/25 06:14:03;;;;;;;2.20;1.35;;;21.30;50.00;;;;;;5113789;27;20040;-64
2022/05/25 06:19:27;;;;;;;1.65;1.20;;;21.30;50.00;;;;;;5112597;27;20066;-64
2022/05/25 06:22:00;;;;;;;1.95;1.40;;;21.30;50.00;;;;;;5112761;27;20051;-66
2022/05/25 06:24:27;;;;;;;2.28;1.17;;;21.30;50.00;;;;;;5112041;27;20035;-66
2022/05/25 06:26:53;;;;;;;1.85;1.20;;;21.30;50.00;;;;;;5113874;27;20064;-65
2022/05/25 06:29:21;;;;;;;1.92;1.33;;;21.30;50.00;;;;;;5112053;27;20030;-64
2022/05/25 06:31:48;;;;;;;3.35;1.88;;;21.30;50.20;;;;;;5092253;27;20048;-66
2022/05/25 06:34:15;;;;;;;6.65;4.43;;;21.30;50.30;;;;;;5112002;27;20050;-66
2022/05/25 06:36:42;;;;;;;9.77;4.45;;;21.30;50.50;;;;;;5113675;27;20715;-66
2022/05/25 06:39:08;;;;;;;5.40;4.00;;;21.30;50.60;;;;;;5113282;27;20035;-66
2022/05/25 06:41:34;;;;;;;8.32;4.80;;;21.30;51.40;;;;;;5114953;27;20043;-65
2022/05/25 06:44:00;;;;;;;5.85;4.15;;;21.30;50.80;;;;;;5112354;27;20042;-64
2022/05/25 06:46:27;;;;;;;6.85;4.43;;;21.20;51.40;;;;;;5113074;27;20039;-65
2022/05/25 06:48:54;;;;;;;5.75;4.03;;;21.30;50.80;;;;;;5107234;27;20039;-66
2022/05/25 06:51:25;;;;;;;6.05;3.60;;;21.20;50.80;;;;;;5109884;27;20089;-66
2022/05/25 06:53:51;;;;;;;7.97;4.47;;;21.20;50.80;;;;;;5096470;27;20114;-66
2022/05/25 06:56:18;;;;;;;5.20;3.22;;;21.20;50.90;;;;;;5111447;27;20122;-66
2022/05/25 06:58:44;;;;;;;4.72;3.35;;;21.20;51.00;;;;;;5112374;27;20147;-65
2022/05/25 07:01:10;;;;;;;5.00;3.40;;;21.20;51.00;;;;;;5111450;27;21203;-64
2022/05/25 07:03:38;;;;;;;5.65;3.40;;;21.20;51.00;;;;;;5113024;27;20081;-66
2022/05/25 07:06:08;;;;;;;5.90;4.15;;;21.20;50.90;;;;;;5110395;27;20039;-66
2022/05/25 07:08:34;;;;;;;5.07;3.35;;;21.30;51.00;;;;;;5111818;27;20042;-66
2022/05/25 07:11:00;;;;;;;4.68;3.20;;;21.20;50.90;;;;;;5111114;27;20044;-64
2022/05/25 07:13:27;;;;;;;5.25;3.65;;;21.20;50.90;;;;;;5114412;27;20164;-65
2022/05/25 07:15:56;;;;;;;6.30;4.05;;;21.20;50.90;;;;;;5112285;27;20035;-66
2022/05/25 07:18:22;;;;;;;4.05;2.78;;;21.20;50.90;;;;;;5109308;27;20039;-66
2022/05/25 07:20:51;;;;;;;4.45;2.90;;;21.30;51.10;;;;;;5112113;27;20039;-66
2022/05/25 07:23:16;;;;;;;4.40;3.03;;;21.20;51.00;;;;;;5109385;27;20038;-66
2022/05/25 07:25:42;;;;;;;6.10;2.92;;;21.30;51.10;;;;;;5112602;27;20039;-64
2022/05/25 07:28:07;;;;;;;4.05;2.33;;;21.20;51.10;;;;;;5109894;27;20123;-66
2022/05/25 07:30:33;;;;;;;3.72;2.55;;;21.20;51.10;;;;;;5112195;28;20050;-65
2022/05/25 07:32:59;;;;;;;4.40;2.72;;;21.20;51.10;;;;;;5111632;28;20091;-66
2022/05/25 07:35:25;;;;;;;4.03;2.20;;;21.20;51.10;;;;;;5109137;28;20407;-66
2022/05/25 07:37:53;;;;;;;4.00;2.67;;;21.30;51.10;;;;;;5112313;28;20039;-64
2022/05/25 07:40:27;;;;;;;2.78;2.45;;;21.30;51.20;;;;;;5111267;28;20028;-65
2022/05/25 07:42:56;;;;;;;4.28;2.95;;;21.30;51.20;;;;;;5111024;28;20425;-65
2022/05/25 07:45:23;;;;;;;3.85;2.20;;;21.30;51.20;;;;;;5109368;28;20050;-65
2022/05/25 07:47:51;;;;;;;2.72;1.85;;;21.30;51.20;;;;;;5104265;28;20039;-63
2022/05/25 07:50:17;;;;;;;3.85;1.98;;;21.30;51.20;;;;;;5109295;28;20047;-65
2022/05/25 07:52:43;;;;;;;3.25;2.42;;;21.30;51.30;;;;;;5109949;28;20660;-64
2022/05/25 07:55:11;;;;;;;3.08;1.70;;;21.30;51.30;;;;;;5111305;28;20385;-65
2022/05/25 07:57:37;;;;;;;5.53;3.40;;;21.30;51.30;;;;;;5089231;28;20039;-64
2022/05/25 08:00:05;;;;;;;3.28;1.63;;;21.30;51.30;;;;;;5109527;28;20054;-64
2022/05/25 08:08:09;;;;;;;2.70;2.00;;;21.30;51.20;;;;;;5107127;28;20050;-63
2022/05/25 08:10:35;;;;;;;4.20;2.20;;;21.30;51.20;;;;;;5107633;28;20943;-63
2022/05/25 08:13:03;;;;;;;4.38;2.47;;;21.30;50.80;;;;;;5103296;28;20182;-64
2022/05/25 08:15:31;;;;;;;2.60;1.90;;;21.30;51.10;;;;;;5096985;27;20133;-62
2022/05/25 08:17:57;;;;;;;2.55;2.05;;;21.30;51.20;;;;;;5078254;27;20035;-63
2022/05/25 08:20:23;;;;;;;2.95;2.30;;;21.30;51.20;;;;;;5077002;27;20041;-64
2022/05/25 08:22:49;;;;;;;2.75;2.13;;;21.30;52.00;;;;;;5074692;27;20039;-63
2022/05/25 08:25:17;;;;;;;2.63;1.88;;;21.30;51.30;;;;;;5072861;27;20055;-64
2022/05/25 08:27:43;;;;;;;3.75;1.73;;;21.30;51.20;;;;;;5088698;27;20471;-64
2022/05/25 08:30:15;;;;;;;3.78;2.25;;;21.30;51.20;;;;;;5088232;27;20050;-63
2022/05/25 08:32:41;;;;;;;3.58;2.20;;;21.30;51.10;;;;;;5073752;27;20044;-63
2022/05/25 08:35:07;;;;;;;3.22;1.52;;;21.30;50.50;;;;;;5074607;27;20448;-64
2022/05/25 08:37:34;;;;;;;2.03;1.40;;;21.30;50.70;;;;;;5093260;27;20050;-64
2022/05/25 08:39:59;;;;;;;2.28;1.13;;;21.30;50.80;;;;;;5074949;27;20051;-64
2022/05/25 08:42:29;;;;;;;2.03;1.13;;;21.30;50.90;;;;;;5094973;27;20703;-63
2022/05/25 08:44:56;;;;;;;2.00;1.30;;;21.30;50.90;;;;;;5108312;27;20402;-64
2022/05/25 08:47:22;;;;;;;4.68;2.20;;;21.30;50.80;;;;;;5075453;27;20039;-64
2022/05/25 08:49:51;;;;;;;2.67;1.23;;;21.30;50.80;;;;;;5094898;27;20049;-64
2022/05/25 08:52:29;;;;;;;2.97;2.00;;;21.30;50.80;;;;;;5076012;27;20046;-62
2022/05/25 08:54:57;;;;;;;2.08;1.10;;;21.30;50.70;;;;;;5076176;27;20200;-64
2022/05/25 08:57:38;;;;;;;4.32;2.17;;;21.30;50.90;;;;;;5106877;27;20035;-64
2022/05/25 09:00:07;;;;;;;3.50;1.15;;;21.30;50.60;;;;;;5108622;27;20138;-66
2022/05/25 09:02:39;;;;;;;2.35;1.02;;;21.30;50.60;;;;;;5096976;27;20045;-62
2022/05/25 09:05:28;;;;;;;2.15;1.27;;;21.30;50.80;;;;;;5114273;27;20044;-63
2022/05/25 09:08:12;;;;;;;2.20;1.50;;;21.30;50.70;;;;;;5115470;27;20043;-64
2022/05/25 09:10:44;;;;;;;2.13;1.63;;;21.30;51.00;;;;;;5112765;27;20479;-66
2022/05/25 09:13:32;;;;;;;1.60;1.30;;;21.30;50.50;;;;;;5111878;27;20124;-66
2022/05/25 09:16:16;;;;;;;2.03;1.10;;;21.30;50.40;;;;;;5099728;27;20042;-65
2022/05/25 09:18:51;;;;;;;1.50;1.05;;;21.30;50.50;;;;;;5110253;27;20047;-66
2022/05/25 09:21:20;;;;;;;1.58;1.23;;;21.30;50.50;;;;;;5112620;27;20035;-66
2022/05/25 09:23:47;;;;;;;4.03;1.90;;;21.30;50.60;;;;;;5111118;27;20039;-65
2022/05/25 09:26:13;;;;;;;2.75;1.40;;;21.30;50.20;;;;;;5113461;27;20035;-65
2022/05/25 09:28:42;;;;;;;3.08;1.60;;;21.30;50.20;;;;;;5088544;27;20047;-66
2022/05/25 09:31:12;;;;;;;2.90;1.27;;;21.30;50.20;;;;;;5113886;27;20059;-65
2022/05/25 09:33:46;;;;;;;3.03;1.48;;;21.30;50.30;;;;;;5098689;27;20048;-65
2022/05/25 09:36:38;;;;;;;2.70;1.15;;;21.30;50.30;;;;;;5109708;27;20439;-64
2022/05/25 09:39:13;;;;;;;2.45;1.17;;;21.30;50.40;;;;;;5113240;27;20037;-65
2022/05/25 09:41:45;;;;;;;1.40;0.90;;;21.30;50.40;;;;;;5115244;27;20147;-63
2022/05/25 09:44:16;;;;;;;1.92;1.08;;;21.30;50.50;;;;;;5113909;27;20104;-64
2022/05/25 09:47:04;;;;;;;1.67;0.98;;;21.30;50.50;;;;;;5132033;27;20453;-64
2022/05/25 09:49:47;;;;;;;1.10;0.85;;;21.30;50.50;;;;;;5115315;27;20035;-64
2022/05/25 09:52:46;;;;;;;1.60;0.80;;;21.30;50.50;;;;;;5116088;27;20043;-64
2022/05/25 09:55:20;;;;;;;2.22;0.90;;;21.30;50.60;;;;;;5114950;27;20092;-64
2022/05/25 09:58:02;;;;;;;1.88;1.00;;;21.30;50.60;;;;;;5106219;27;20042;-65
2022/05/25 10:00:34;;;;;;;3.42;1.00;;;21.30;50.60;;;;;;5115235;27;20032;-63
2022/05/25 10:03:08;;;;;;;1.08;0.77;;;21.30;50.60;;;;;;5115108;27;20371;-65
2022/05/25 10:05:56;;;;;;;1.00;0.90;;;21.30;50.50;;;;;;5112041;27;20035;-62
2022/05/25 10:08:36;;;;;;;1.30;0.80;;;21.30;50.60;;;;;;5112470;27;20042;-63
2022/05/25 10:11:32;;;;;;;1.40;0.87;;;21.30;50.60;;;;;;5113104;27;20036;-63
2022/05/25 10:14:15;;;;;;;2.15;1.20;;;21.30;50.60;;;;;;5111983;27;20044;-63
2022/05/25 10:16:41;;;;;;;1.58;1.10;;;21.30;50.70;;;;;;5109929;27;20745;-63
2022/05/25 10:19:13;;;;;;;1.77;1.17;;;21.30;50.80;;;;;;5108129;27;20046;-63
2022/05/25 10:21:45;;;;;;;1.13;1.02;;;21.30;51.00;;;;;;5110006;27;20906;-63
2022/05/25 10:24:39;;;;;;;2.63;1.40;;;21.30;51.20;;;;;;5110074;27;20497;-62
2022/05/25 10:27:21;;;;;;;1.35;1.00;;;21.30;51.10;;;;;;5112306;27;20027;-63
2022/05/25 10:38:26;;;;;;;4.15;1.20;;;21.20;50.60;;;;;;5110086;27;20043;-63
2022/05/25 10:40:52;;;;;;;1.65;1.23;;;21.30;50.50;;;;;;5115295;27;20115;-63
2022/05/25 10:43:25;;;;;;;2.35;1.30;;;21.30;50.30;;;;;;5112474;27;20044;-63
2022/05/25 10:45:53;;;;;;;3.42;1.40;;;21.20;50.00;;;;;;5101316;27;20125;-63
2022/05/25 10:48:43;;;;;;;2.20;1.27;;;21.20;49.90;;;;;;5112779;27;20100;-63
2022/05/25 10:51:13;;;;;;;1.35;1.10;;;21.20;49.50;;;;;;5112166;27;20035;-63
2022/05/25 10:57:02;;;;;;;4.75;1.70;;;21.30;49.30;;;;;;5110172;27;20071;-63
2022/05/25 11:00:00;;;;;;;1.75;1.38;;;21.20;49.00;;;;;;5113901;27;20042;-63
2022/05/25 11:03:13;;;;;;;3.00;1.40;;;21.20;48.80;;;;;;5112801;27;20094;-63
2022/05/25 11:06:03;;;;;;;2.80;1.30;;;21.20;48.70;;;;;;5100117;27;20039;-63
2022/05/25 11:08:56;;;;;;;1.67;1.13;;;21.20;48.90;;;;;;5112654;27;20039;-62
2022/05/25 11:11:56;;;;;;;2.70;1.30;;;21.20;48.80;;;;;;5110192;27;20059;-63
2022/05/25 11:14:37;;;;;;;3.50;1.10;;;21.20;48.90;;;;;;5107784;27;20122;-63
2022/05/25 11:17:30;;;;;;;1.27;1.10;;;21.20;48.90;;;;;;5109558;27;20043;-64
2022/05/25 11:20:08;;;;;;;2.92;1.23;;;21.20;49.00;;;;;;5110305;27;20044;-64
2022/05/25 11:23:00;;;;;;;3.60;1.17;;;21.20;48.90;;;;;;5112067;27;20035;-63
2022/05/25 11:25:48;;;;;;;3.55;1.10;;;21.20;49.00;;;;;;5111673;27;20039;-63
2022/05/25 11:28:20;;;;;;;3.50;1.10;;;21.20;49.00;;;;;;5113470;27;20040;-65
2022/05/25 11:31:04;;;;;;;3.15;1.17;;;21.20;49.00;;;;;;5109785;27;20085;-65
2022/05/25 11:33:51;;;;;;;1.38;1.15;;;21.20;49.00;;;;;;5121940;27;20109;-64
2022/05/25 11:36:38;;;;;;;2.53;1.17;;;21.20;49.00;;;;;;5112287;28;20047;-62
2022/05/25 11:39:41;;;;;;;1.65;1.17;;;21.20;49.10;;;;;;5111456;28;20046;-63
2022/05/25 11:42:43;;;;;;;2.30;1.10;;;21.30;49.30;;;;;;5103567;28;20035;-64
2022/05/25 11:45:37;;;;;;;2.35;1.10;;;21.20;49.10;;;;;;5110839;28;20075;-63
2022/05/25 11:48:02;;;;;;;4.18;1.73;;;21.20;49.00;;;;;;5112044;27;20061;-63
2022/05/25 11:51:01;;;;;;;2.80;1.33;;;21.20;49.00;;;;;;5112776;27;20043;-63
2022/05/25 11:53:37;;;;;;;2.35;1.27;;;21.20;49.10;;;;;;5116609;27;20348;-63
2022/05/25 11:56:46;;;;;;;2.55;1.33;;;21.20;49.10;;;;;;5118452;27;20035;-63
2022/05/25 11:59:32;;;;;;;2.63;1.30;;;21.20;49.00;;;;;;5116035;27;20059;-63
2022/05/25 12:02:09;;;;;;;1.52;1.40;;;21.20;49.00;;;;;;5102074;27;20116;-64
2022/05/25 12:05:07;;;;;;;2.10;1.27;;;21.20;49.00;;;;;;5117040;27;20039;-62
2022/05/25 12:07:52;;;;;;;2.78;1.10;;;21.20;49.00;;;;;;5111794;27;20061;-64
2022/05/25 12:10:24;;;;;;;2.50;1.40;;;21.20;49.10;;;;;;5115499;27;20047;-63
2022/05/25 12:13:15;;;;;;;3.05;1.02;;;21.20;49.20;;;;;;5116633;27;20495;-64
2022/05/25 12:15:54;;;;;;;2.70;1.40;;;21.20;49.30;;;;;;5102850;27;20088;-64
2022/05/25 12:18:32;;;;;;;1.73;1.25;;;21.20;49.30;;;;;;5116281;27;20039;-64
2022/05/25 12:21:04;;;;;;;1.05;0.90;;;21.20;49.30;;;;;;5118486;27;20049;-62
2022/05/25 12:23:34;;;;;;;1.80;1.27;;;21.20;49.40;;;;;;5114840;27;20109;-64
2022/05/25 12:26:30;;;;;;;1.75;1.20;;;21.20;49.40;;;;;;5117182;27;20411;-63
2022/05/25 12:29:22;;;;;;;1.45;1.00;;;21.20;49.50;;;;;;5108082;27;20046;-63
2022/05/25 12:31:53;;;;;;;1.60;1.50;;;21.20;49.60;;;;;;5104773;27;20048;-64
2022/05/25 12:34:22;;;;;;;;;;;21.20;49.70;;;;;;5117666;27;20043;-63
2022/05/25 12:36:47;;;;;;;2.35;1.20;;;21.20;49.80;;;;;;5117745;27;19946;-64
2022/05/25 12:39:33;;;;;;;2.40;1.20;;;21.20;49.80;;;;;;5116116;27;20471;-63
2022/05/25 12:42:22;;;;;;;1.10;0.90;;;21.20;49.90;;;;;;5116002;27;20364;-63
2022/05/25 12:50:50;;;;;;;2.47;1.05;;;21.20;49.90;;;;;;5117669;27;20086;-63
2022/05/25 12:53:34;;;;;;;1.23;1.00;;;21.20;49.90;;;;;;5100231;27;20031;-63
2022/05/25 12:56:11;;;;;;;2.47;1.02;;;21.20;49.80;;;;;;5108350;27;20032;-64
2022/05/25 12:58:40;;;;;;;2.83;1.20;;;21.20;49.80;;;;;;5111016;27;20047;-63
2022/05/25 13:01:33;;;;;;;2.00;0.90;;;21.20;49.80;;;;;;5112761;27;20406;-64
2022/05/25 13:03:59;;;;;;;2.03;0.90;;;21.20;49.70;;;;;;5113255;27;20042;-63
2022/05/25 13:06:27;;;;;;;3.45;1.00;;;21.20;49.60;;;;;;5113789;27;20061;-63
2022/05/25 13:08:53;;;;;;;2.97;1.20;;;21.20;49.50;;;;;;5112962;27;20043;-63
2022/05/25 13:11:44;;;;;;;3.38;1.10;;;21.20;49.60;;;;;;5115204;27;20122;-63
2022/05/25 13:14:29;;;;;;;1.92;1.02;;;21.30;49.60;;;;;;5110255;27;20051;-63
2022/05/25 13:16:58;;;;;;;2.83;0.90;;;21.20;49.30;;;;;;5112259;27;20115;-63
2022/05/25 13:19:32;;;;;;;1.98;0.90;;;21.30;49.40;;;;;;5113825;27;20123;-63
2022/05/25 13:22:06;;;;;;;2.17;0.80;;;21.20;49.30;;;;;;5111771;27;20047;-63
2022/05/25 13:24:53;;;;;;;2.90;1.00;;;21.20;49.40;;;;;;5113398;27;20043;-63
2022/05/25 13:27:53;;;;;;;2.00;1.00;;;21.20;48.80;;;;;;5109530;27;20050;-63
2022/05/25 13:30:39;;;;;;;4.40;1.02;;;21.20;48.20;;;;;;5108276;27;20038;-63
2022/05/25 13:33:21;;;;;;;3.13;0.73;;;21.20;47.90;;;;;;5110095;27;20057;-62
2022/05/25 13:35:55;;;;;;;3.20;0.80;;;21.20;47.90;;;;;;5112181;27;20122;-63
2022/05/25 13:38:38;;;;;;;5.13;0.95;;;21.20;48.00;;;;;;5111318;27;20043;-63
2022/05/25 13:41:19;;;;;;;3.70;0.70;;;21.20;47.80;;;;;;5111194;27;20031;-63
2022/05/25 13:44:00;;;;;;;1.10;0.60;;;21.20;47.80;;;;;;5112177;27;20051;-63
2022/05/25 13:46:44;;;;;;;1.60;0.70;;;21.20;47.60;;;;;;5112082;27;20047;-63
2022/05/25 13:49:20;;;;;;;2.42;0.70;;;21.20;47.80;;;;;;5109229;27;20032;-63
2022/05/25 13:51:45;;;;;;;2.83;0.43;;;21.20;47.90;;;;;;5112487;27;20040;-63
2022/05/25 13:54:24;;;;;;;2.40;0.80;;;21.20;47.70;;;;;;5113581;27;20105;-63